PWSweather.com
Personal Weather Stations
Station Observations
PITCARMI1
La Serra, CarmignanoIT 59015

La SerraCarmignanoIT 59015

Lat: 43.804429, Lon: 11.027222

Elevation: 525

Station Type: Davis Vantage Vue

http://www.meteocarmignano.it

High Low Average
Temperature 68.6°F20.3°C 57.7°F14.3°C 64.1°F17.8°C
Dew Point 56.3°F13.5°C 51.0°F10.6°C 53.8°F12.1°C
Winds 6.7 mph 10.8 kmh Calm Calm 1.0 mph SSW1.6 kmh SSW
Wind Gusts 10.0 mph16.1 kmh -- 2.0 mph3.2 kmh
Humidity 84% 57% 70%
Pressure 30.06 in1017.9 mb 29.96 in1014.6 mb -
Precipitation 0.04 in1.0 mm - -
Hour Temp Dew Point Humidity Winds Wind Gusts Pressure Precip Precip Rate Daily Precip Total
12:00 AM 68.4°F20.2°C 55.7°F13.2°C 64% Calm Calm -- 29.98 in1015.2 mb 0.00 in0.0 mm 0.00 in/hr0.0 mm/hr 0.00 in0.0 mm
12:30 AM 67.9°F19.9°C 53.5°F11.9°C 60% 0.3 mph WSW0.5 kmh WSW 1.0 mph1.6 kmh 29.98 in1015.2 mb 0.00 in0.0 mm 0.00 in/hr0.0 mm/hr 0.00 in0.0 mm
01:00 AM 67.0°F19.4°C 54.4°F12.4°C 64% Calm Calm 1.0 mph1.6 kmh 29.96 in1014.6 mb 0.00 in0.0 mm 0.00 in/hr0.0 mm/hr 0.00 in0.0 mm
01:30 AM 67.2°F19.6°C 53.3°F11.8°C 61% Calm Calm 1.0 mph1.6 kmh 29.96 in1014.6 mb 0.00 in0.0 mm 0.00 in/hr0.0 mm/hr 0.00 in0.0 mm
02:00 AM 65.6°F18.7°C 52.7°F11.5°C 63% Calm Calm -- 29.97 in1014.9 mb 0.00 in0.0 mm 0.00 in/hr0.0 mm/hr 0.00 in0.0 mm
02:30 AM 64.3°F17.9°C 53.9°F12.2°C 69% 0.1 mph SW0.2 kmh SW 1.0 mph1.6 kmh 29.97 in1014.9 mb 0.00 in0.0 mm 0.00 in/hr0.0 mm/hr 0.00 in0.0 mm
03:00 AM 64.0°F17.8°C 54.0°F12.2°C 70% 0.2 mph WSW0.3 kmh WSW 1.0 mph1.6 kmh 29.96 in1014.6 mb 0.00 in0.0 mm 0.00 in/hr0.0 mm/hr 0.00 in0.0 mm
03:30 AM 63.8°F17.7°C 54.6°F12.6°C 72% 0.1 mph WSW0.2 kmh WSW -- 29.97 in1014.9 mb 0.00 in0.0 mm 0.00 in/hr0.0 mm/hr 0.00 in0.0 mm
04:00 AM 64.6°F18.1°C 54.2°F12.3°C 69% 0.1 mph NE0.2 kmh NE 1.0 mph1.6 kmh 29.97 in1014.9 mb 0.00 in0.0 mm 0.00 in/hr0.0 mm/hr 0.00 in0.0 mm
05:00 AM 62.6°F17.0°C 54.2°F12.3°C 74% Calm Calm -- 29.98 in1015.2 mb 0.00 in0.0 mm 0.00 in/hr0.0 mm/hr 0.00 in0.0 mm
05:30 AM 62.0°F16.7°C 54.3°F12.4°C 76% Calm Calm 1.0 mph1.6 kmh 29.98 in1015.2 mb 0.00 in0.0 mm 0.00 in/hr0.0 mm/hr 0.00 in0.0 mm
06:00 AM 63.0°F17.2°C 55.3°F12.9°C 76% 2.0 mph ENE3.2 kmh ENE 2.0 mph3.2 kmh 30.00 in1015.9 mb 0.00 in0.0 mm 0.00 in/hr0.0 mm/hr 0.00 in0.0 mm
06:30 AM 64.8°F18.2°C 56.3°F13.5°C 74% 0.4 mph NW0.6 kmh NW 1.0 mph1.6 kmh 30.02 in1016.6 mb 0.00 in0.0 mm 0.00 in/hr0.0 mm/hr 0.00 in0.0 mm
07:00 AM 65.4°F18.6°C 53.7°F12.1°C 66% 2.5 mph SW4.0 kmh SW 4.0 mph6.4 kmh 30.03 in1016.9 mb 0.00 in0.0 mm 0.00 in/hr0.0 mm/hr 0.00 in0.0 mm
07:30 AM 66.4°F19.1°C 53.4°F11.9°C 63% 1.4 mph WSW2.3 kmh WSW 2.0 mph3.2 kmh 30.04 in1017.3 mb 0.00 in0.0 mm 0.00 in/hr0.0 mm/hr 0.00 in0.0 mm
08:00 AM 68.6°F20.3°C 53.2°F11.8°C 58% 3.8 mph ESE6.1 kmh ESE 9.0 mph14.5 kmh 30.04 in1017.3 mb 0.00 in0.0 mm 0.00 in/hr0.0 mm/hr 0.00 in0.0 mm
08:30 AM 68.4°F20.2°C 53.0°F11.7°C 58% 4.5 mph SW7.2 kmh SW 10.0 mph16.1 kmh 30.05 in1017.6 mb 0.00 in0.0 mm 0.00 in/hr0.0 mm/hr 0.00 in0.0 mm
09:00 AM 66.8°F19.3°C 51.0°F10.6°C 57% 6.7 mph WSW10.8 kmh WSW 9.0 mph14.5 kmh 30.06 in1017.9 mb 0.00 in0.0 mm 0.00 in/hr0.0 mm/hr 0.00 in0.0 mm
09:00 PM 61.6°F16.4°C 54.4°F12.4°C 77% 0.7 mph W1.1 kmh W 1.0 mph1.6 kmh 30.04 in1017.3 mb 0.00 in0.0 mm 0.00 in/hr0.0 mm/hr 0.04 in1.0 mm
09:30 PM 60.1°F15.6°C 53.9°F12.2°C 80% 0.4 mph SW0.6 kmh SW 1.0 mph1.6 kmh 30.05 in1017.6 mb 0.00 in0.0 mm 0.00 in/hr0.0 mm/hr 0.04 in1.0 mm
10:00 PM 60.4°F15.8°C 53.9°F12.2°C 79% 0.4 mph SW0.6 kmh SW 1.0 mph1.6 kmh 30.05 in1017.6 mb 0.00 in0.0 mm 0.00 in/hr0.0 mm/hr 0.04 in1.0 mm
10:30 PM 59.5°F15.3°C 53.3°F11.8°C 80% 2.1 mph ENE3.4 kmh ENE 4.0 mph6.4 kmh 30.04 in1017.3 mb 0.00 in0.0 mm 0.00 in/hr0.0 mm/hr 0.04 in1.0 mm
11:00 PM 58.6°F14.8°C 53.2°F11.8°C 82% Calm Calm 1.0 mph1.6 kmh 30.04 in1017.3 mb 0.00 in0.0 mm 0.00 in/hr0.0 mm/hr 0.00 in0.0 mm
11:30 PM 57.7°F14.3°C 52.9°F11.6°C 84% 0.2 mph WSW0.3 kmh WSW 1.0 mph1.6 kmh 30.04 in1017.3 mb 0.00 in0.0 mm 0.00 in/hr0.0 mm/hr 0.00 in0.0 mm